sensor_id;sensor_type;location;lat;lon;timestamp;P1;durP1;ratioP1;P2;durP2;ratioP2
2710;SDS011;20721;47.402;8.550;2023-12-28T00:01:48;11.18;;;11.18;;
2710;SDS011;20721;47.402;8.550;2023-12-28T00:03:46;11.78;;;11.78;;
2710;SDS011;20721;47.402;8.550;2023-12-28T00:05:46;10.78;;;10.76;;
2710;SDS011;20721;47.402;8.550;2023-12-28T00:07:46;9.18;;;9.18;;
2710;SDS011;20721;47.402;8.550;2023-12-28T00:09:46;9.84;;;9.84;;
2710;SDS011;20721;47.402;8.550;2023-12-28T00:11:46;9.79;;;9.79;;
2710;SDS011;20721;47.402;8.550;2023-12-28T00:13:46;10.61;;;10.61;;
2710;SDS011;20721;47.402;8.550;2023-12-28T00:15:46;10.79;;;10.79;;
2710;SDS011;20721;47.402;8.550;2023-12-28T00:17:46;10.49;;;10.49;;
2710;SDS011;20721;47.402;8.550;2023-12-28T00:19:46;10.18;;;10.18;;
2710;SDS011;20721;47.402;8.550;2023-12-28T00:21:46;10.20;;;10.17;;
2710;SDS011;20721;47.402;8.550;2023-12-28T00:23:46;10.46;;;10.46;;
2710;SDS011;20721;47.402;8.550;2023-12-28T00:25:46;9.82;;;9.82;;
2710;SDS011;20721;47.402;8.550;2023-12-28T00:27:47;9.49;;;9.49;;
2710;SDS011;20721;47.402;8.550;2023-12-28T00:29:48;9.74;;;9.74;;
2710;SDS011;20721;47.402;8.550;2023-12-28T00:32:46;9.83;;;9.83;;
2710;SDS011;20721;47.402;8.550;2023-12-28T00:34:47;7.42;;;7.42;;
2710;SDS011;20721;47.402;8.550;2023-12-28T00:36:46;6.63;;;6.63;;
2710;SDS011;20721;47.402;8.550;2023-12-28T00:38:46;6.27;;;6.27;;
2710;SDS011;20721;47.402;8.550;2023-12-28T00:40:46;6.09;;;6.09;;
2710;SDS011;20721;47.402;8.550;2023-12-28T00:42:46;6.53;;;6.53;;
2710;SDS011;20721;47.402;8.550;2023-12-28T00:44:46;5.01;;;5.01;;
2710;SDS011;20721;47.402;8.550;2023-12-28T00:46:46;6.44;;;6.44;;
2710;SDS011;20721;47.402;8.550;2023-12-28T00:48:46;5.67;;;5.67;;
2710;SDS011;20721;47.402;8.550;2023-12-28T00:50:46;5.08;;;5.08;;
2710;SDS011;20721;47.402;8.550;2023-12-28T00:52:46;5.19;;;5.19;;
2710;SDS011;20721;47.402;8.550;2023-12-28T00:54:47;5.51;;;5.51;;
2710;SDS011;20721;47.402;8.550;2023-12-28T00:56:46;6.58;;;6.58;;
2710;SDS011;20721;47.402;8.550;2023-12-28T00:58:49;9.20;;;9.17;;
2710;SDS011;20721;47.402;8.550;2023-12-28T01:00:46;5.52;;;5.52;;
2710;SDS011;20721;47.402;8.550;2023-12-28T01:02:46;5.13;;;5.13;;
2710;SDS011;20721;47.402;8.550;2023-12-28T01:04:46;5.41;;;5.41;;
2710;SDS011;20721;47.402;8.550;2023-12-28T01:06:46;5.60;;;5.60;;
2710;SDS011;20721;47.402;8.550;2023-12-28T01:08:46;5.45;;;5.45;;
2710;SDS011;20721;47.402;8.550;2023-12-28T01:10:46;5.48;;;5.48;;
2710;SDS011;20721;47.402;8.550;2023-12-28T01:13:46;5.36;;;5.36;;
2710;SDS011;20721;47.402;8.550;2023-12-28T01:15:46;5.65;;;5.65;;
2710;SDS011;20721;47.402;8.550;2023-12-28T01:17:47;7.30;;;7.30;;
2710;SDS011;20721;47.402;8.550;2023-12-28T01:19:46;7.91;;;7.91;;
2710;SDS011;20721;47.402;8.550;2023-12-28T01:21:46;7.97;;;7.97;;
2710;SDS011;20721;47.402;8.550;2023-12-28T01:23:46;8.30;;;8.30;;
2710;SDS011;20721;47.402;8.550;2023-12-28T01:25:46;7.54;;;7.54;;
2710;SDS011;20721;47.402;8.550;2023-12-28T01:27:46;7.50;;;7.50;;
2710;SDS011;20721;47.402;8.550;2023-12-28T01:29:46;7.97;;;7.97;;
2710;SDS011;20721;47.402;8.550;2023-12-28T01:31:48;6.37;;;6.37;;
2710;SDS011;20721;47.402;8.550;2023-12-28T01:33:46;7.79;;;7.79;;
2710;SDS011;20721;47.402;8.550;2023-12-28T01:35:46;7.59;;;7.59;;
2710;SDS011;20721;47.402;8.550;2023-12-28T01:37:46;7.27;;;7.27;;
2710;SDS011;20721;47.402;8.550;2023-12-28T01:39:46;5.94;;;5.94;;
2710;SDS011;20721;47.402;8.550;2023-12-28T01:41:46;6.50;;;6.50;;
2710;SDS011;20721;47.402;8.550;2023-12-28T01:43:46;6.20;;;6.20;;
2710;SDS011;20721;47.402;8.550;2023-12-28T01:45:46;5.61;;;5.61;;
2710;SDS011;20721;47.402;8.550;2023-12-28T01:47:47;5.27;;;5.27;;
2710;SDS011;20721;47.402;8.550;2023-12-28T01:49:47;5.09;;;5.09;;
2710;SDS011;20721;47.402;8.550;2023-12-28T01:51:47;4.68;;;4.68;;
2710;SDS011;20721;47.402;8.550;2023-12-28T01:53:47;4.96;;;4.96;;
2710;SDS011;20721;47.402;8.550;2023-12-28T01:55:46;5.77;;;5.77;;
2710;SDS011;20721;47.402;8.550;2023-12-28T01:57:47;4.88;;;4.88;;
2710;SDS011;20721;47.402;8.550;2023-12-28T01:59:47;4.66;;;4.66;;
2710;SDS011;20721;47.402;8.550;2023-12-28T02:01:46;4.59;;;4.59;;
2710;SDS011;20721;47.402;8.550;2023-12-28T02:03:47;4.82;;;4.82;;
2710;SDS011;20721;47.402;8.550;2023-12-28T02:05:47;5.40;;;5.40;;
2710;SDS011;20721;47.402;8.550;2023-12-28T02:08:46;5.47;;;5.47;;
2710;SDS011;20721;47.402;8.550;2023-12-28T02:10:46;5.00;;;5.00;;
2710;SDS011;20721;47.402;8.550;2023-12-28T02:12:46;5.46;;;5.46;;
2710;SDS011;20721;47.402;8.550;2023-12-28T02:14:46;6.30;;;6.30;;
2710;SDS011;20721;47.402;8.550;2023-12-28T02:16:50;6.73;;;6.73;;
2710;SDS011;20721;47.402;8.550;2023-12-28T02:18:53;6.29;;;6.29;;
2710;SDS011;20721;47.402;8.550;2023-12-28T02:20:48;5.96;;;5.96;;
2710;SDS011;20721;47.402;8.550;2023-12-28T02:22:47;6.15;;;6.15;;
2710;SDS011;20721;47.402;8.550;2023-12-28T02:26:46;6.22;;;6.22;;
2710;SDS011;20721;47.402;8.550;2023-12-28T02:28:46;5.22;;;5.22;;
2710;SDS011;20721;47.402;8.550;2023-12-28T02:30:47;6.44;;;6.44;;
2710;SDS011;20721;47.402;8.550;2023-12-28T02:34:51;6.38;;;6.38;;
2710;SDS011;20721;47.402;8.550;2023-12-28T02:36:51;5.84;;;5.84;;
2710;SDS011;20721;47.402;8.550;2023-12-28T02:38:48;5.51;;;5.51;;
2710;SDS011;20721;47.402;8.550;2023-12-28T02:40:49;6.24;;;6.24;;
2710;SDS011;20721;47.402;8.550;2023-12-28T02:42:47;5.86;;;5.86;;
2710;SDS011;20721;47.402;8.550;2023-12-28T02:44:46;5.51;;;5.51;;
2710;SDS011;20721;47.402;8.550;2023-12-28T02:46:46;4.90;;;4.90;;
2710;SDS011;20721;47.402;8.550;2023-12-28T02:48:47;5.27;;;5.27;;
2710;SDS011;20721;47.402;8.550;2023-12-28T02:50:47;5.26;;;5.26;;
2710;SDS011;20721;47.402;8.550;2023-12-28T02:52:46;6.43;;;6.43;;
2710;SDS011;20721;47.402;8.550;2023-12-28T02:55:47;6.02;;;6.02;;
2710;SDS011;20721;47.402;8.550;2023-12-28T02:57:48;7.38;;;7.38;;
2710;SDS011;20721;47.402;8.550;2023-12-28T02:59:48;9.17;;;9.17;;
2710;SDS011;20721;47.402;8.550;2023-12-28T03:02:47;6.12;;;6.12;;
2710;SDS011;20721;47.402;8.550;2023-12-28T03:04:47;5.83;;;5.83;;
2710;SDS011;20721;47.402;8.550;2023-12-28T03:06:48;6.28;;;6.28;;
2710;SDS011;20721;47.402;8.550;2023-12-28T03:08:46;5.95;;;5.95;;
2710;SDS011;20721;47.402;8.550;2023-12-28T03:10:47;6.31;;;6.31;;
2710;SDS011;20721;47.402;8.550;2023-12-28T03:12:47;5.26;;;5.26;;
2710;SDS011;20721;47.402;8.550;2023-12-28T03:14:46;5.50;;;5.50;;
2710;SDS011;20721;47.402;8.550;2023-12-28T03:16:47;5.26;;;5.26;;
2710;SDS011;20721;47.402;8.550;2023-12-28T03:18:47;4.99;;;4.99;;
2710;SDS011;20721;47.402;8.550;2023-12-28T03:20:47;4.95;;;4.95;;
2710;SDS011;20721;47.402;8.550;2023-12-28T03:22:47;5.62;;;5.62;;
2710;SDS011;20721;47.402;8.550;2023-12-28T03:24:48;6.03;;;6.03;;
2710;SDS011;20721;47.402;8.550;2023-12-28T03:26:48;5.81;;;5.81;;
2710;SDS011;20721;47.402;8.550;2023-12-28T03:28:47;5.32;;;5.32;;
2710;SDS011;20721;47.402;8.550;2023-12-28T03:30:47;5.47;;;5.47;;
2710;SDS011;20721;47.402;8.550;2023-12-28T03:32:47;5.33;;;5.33;;
2710;SDS011;20721;47.402;8.550;2023-12-28T03:34:47;5.16;;;5.16;;
2710;SDS011;20721;47.402;8.550;2023-12-28T03:36:47;5.93;;;5.93;;
2710;SDS011;20721;47.402;8.550;2023-12-28T03:38:48;5.91;;;5.91;;
2710;SDS011;20721;47.402;8.550;2023-12-28T03:40:47;5.54;;;5.54;;
2710;SDS011;20721;47.402;8.550;2023-12-28T03:42:49;5.77;;;5.77;;
2710;SDS011;20721;47.402;8.550;2023-12-28T03:44:47;5.85;;;5.85;;
2710;SDS011;20721;47.402;8.550;2023-12-28T03:46:47;5.61;;;5.61;;
2710;SDS011;20721;47.402;8.550;2023-12-28T03:50:47;6.18;;;6.18;;
2710;SDS011;20721;47.402;8.550;2023-12-28T03:52:47;8.18;;;8.18;;
2710;SDS011;20721;47.402;8.550;2023-12-28T03:54:47;8.36;;;8.36;;
2710;SDS011;20721;47.402;8.550;2023-12-28T03:56:49;6.74;;;6.74;;
2710;SDS011;20721;47.402;8.550;2023-12-28T03:58:47;6.22;;;6.22;;
2710;SDS011;20721;47.402;8.550;2023-12-28T04:00:47;6.16;;;6.16;;
2710;SDS011;20721;47.402;8.550;2023-12-28T04:02:47;6.50;;;6.50;;
2710;SDS011;20721;47.402;8.550;2023-12-28T04:04:47;6.49;;;6.49;;
2710;SDS011;20721;47.402;8.550;2023-12-28T04:06:47;6.55;;;6.55;;
2710;SDS011;20721;47.402;8.550;2023-12-28T04:08:47;7.09;;;7.09;;
2710;SDS011;20721;47.402;8.550;2023-12-28T04:10:47;7.03;;;7.03;;
2710;SDS011;20721;47.402;8.550;2023-12-28T04:12:47;6.42;;;6.42;;
2710;SDS011;20721;47.402;8.550;2023-12-28T04:14:47;6.47;;;6.47;;
2710;SDS011;20721;47.402;8.550;2023-12-28T04:16:47;6.64;;;6.64;;
2710;SDS011;20721;47.402;8.550;2023-12-28T04:18:47;6.60;;;6.60;;
2710;SDS011;20721;47.402;8.550;2023-12-28T04:20:47;6.42;;;6.42;;
2710;SDS011;20721;47.402;8.550;2023-12-28T04:22:47;6.57;;;6.57;;
2710;SDS011;20721;47.402;8.550;2023-12-28T04:24:47;6.99;;;6.99;;
2710;SDS011;20721;47.402;8.550;2023-12-28T04:26:47;5.81;;;5.81;;
2710;SDS011;20721;47.402;8.550;2023-12-28T04:28:47;7.15;;;7.15;;
2710;SDS011;20721;47.402;8.550;2023-12-28T04:30:47;5.57;;;5.57;;
2710;SDS011;20721;47.402;8.550;2023-12-28T04:32:47;5.71;;;5.71;;
2710;SDS011;20721;47.402;8.550;2023-12-28T04:34:47;5.51;;;5.51;;
2710;SDS011;20721;47.402;8.550;2023-12-28T04:36:50;5.89;;;5.89;;
2710;SDS011;20721;47.402;8.550;2023-12-28T04:38:48;6.75;;;6.75;;
2710;SDS011;20721;47.402;8.550;2023-12-28T04:40:47;6.56;;;6.56;;
2710;SDS011;20721;47.402;8.550;2023-12-28T04:42:47;6.06;;;6.06;;
2710;SDS011;20721;47.402;8.550;2023-12-28T04:44:47;5.53;;;5.53;;
2710;SDS011;20721;47.402;8.550;2023-12-28T04:46:48;5.34;;;5.34;;
2710;SDS011;20721;47.402;8.550;2023-12-28T04:48:47;5.56;;;5.56;;
2710;SDS011;20721;47.402;8.550;2023-12-28T04:50:50;5.48;;;5.48;;
2710;SDS011;20721;47.402;8.550;2023-12-28T04:53:48;4.97;;;4.97;;
2710;SDS011;20721;47.402;8.550;2023-12-28T04:55:47;5.90;;;5.90;;
2710;SDS011;20721;47.402;8.550;2023-12-28T04:57:47;17.61;;;17.58;;
2710;SDS011;20721;47.402;8.550;2023-12-28T04:59:48;15.41;;;15.41;;
2710;SDS011;20721;47.402;8.550;2023-12-28T05:02:47;13.25;;;13.25;;
2710;SDS011;20721;47.402;8.550;2023-12-28T05:04:49;13.11;;;13.11;;
2710;SDS011;20721;47.402;8.550;2023-12-28T05:06:47;10.98;;;10.98;;
2710;SDS011;20721;47.402;8.550;2023-12-28T05:08:47;11.64;;;11.64;;
2710;SDS011;20721;47.402;8.550;2023-12-28T05:10:47;9.68;;;9.68;;
2710;SDS011;20721;47.402;8.550;2023-12-28T05:12:55;8.63;;;8.63;;
2710;SDS011;20721;47.402;8.550;2023-12-28T05:15:47;7.01;;;7.01;;
2710;SDS011;20721;47.402;8.550;2023-12-28T05:19:47;7.55;;;7.55;;
2710;SDS011;20721;47.402;8.550;2023-12-28T05:21:47;5.45;;;5.45;;
2710;SDS011;20721;47.402;8.550;2023-12-28T05:23:47;6.34;;;6.34;;
2710;SDS011;20721;47.402;8.550;2023-12-28T05:25:47;4.98;;;4.98;;
2710;SDS011;20721;47.402;8.550;2023-12-28T05:27:47;5.83;;;5.83;;
2710;SDS011;20721;47.402;8.550;2023-12-28T05:29:47;7.89;;;7.89;;
2710;SDS011;20721;47.402;8.550;2023-12-28T05:31:47;6.21;;;6.21;;
2710;SDS011;20721;47.402;8.550;2023-12-28T05:33:47;5.89;;;5.89;;
2710;SDS011;20721;47.402;8.550;2023-12-28T05:35:47;6.13;;;6.13;;
2710;SDS011;20721;47.402;8.550;2023-12-28T05:37:47;6.02;;;6.02;;
2710;SDS011;20721;47.402;8.550;2023-12-28T05:39:47;4.64;;;4.64;;
2710;SDS011;20721;47.402;8.550;2023-12-28T05:41:47;6.04;;;6.04;;
2710;SDS011;20721;47.402;8.550;2023-12-28T05:43:47;5.40;;;5.40;;
2710;SDS011;20721;47.402;8.550;2023-12-28T05:45:47;5.56;;;5.56;;
2710;SDS011;20721;47.402;8.550;2023-12-28T05:48:47;5.36;;;5.36;;
2710;SDS011;20721;47.402;8.550;2023-12-28T05:50:47;5.91;;;5.91;;
2710;SDS011;20721;47.402;8.550;2023-12-28T05:52:48;5.06;;;5.06;;
2710;SDS011;20721;47.402;8.550;2023-12-28T05:54:47;4.80;;;4.80;;
2710;SDS011;20721;47.402;8.550;2023-12-28T05:58:48;5.16;;;5.16;;
2710;SDS011;20721;47.402;8.550;2023-12-28T06:00:48;4.86;;;4.86;;
2710;SDS011;20721;47.402;8.550;2023-12-28T06:02:47;4.97;;;4.97;;
2710;SDS011;20721;47.402;8.550;2023-12-28T06:04:47;5.13;;;5.13;;
2710;SDS011;20721;47.402;8.550;2023-12-28T06:06:47;5.14;;;5.14;;
2710;SDS011;20721;47.402;8.550;2023-12-28T06:09:48;5.36;;;5.36;;
2710;SDS011;20721;47.402;8.550;2023-12-28T06:11:47;4.41;;;4.41;;
2710;SDS011;20721;47.402;8.550;2023-12-28T06:13:47;4.67;;;4.67;;
2710;SDS011;20721;47.402;8.550;2023-12-28T06:15:47;4.51;;;4.51;;
2710;SDS011;20721;47.402;8.550;2023-12-28T06:17:47;4.46;;;4.46;;
2710;SDS011;20721;47.402;8.550;2023-12-28T06:19:47;4.03;;;4.03;;
2710;SDS011;20721;47.402;8.550;2023-12-28T06:21:47;4.34;;;4.34;;
2710;SDS011;20721;47.402;8.550;2023-12-28T06:23:47;5.21;;;5.21;;
2710;SDS011;20721;47.402;8.550;2023-12-28T06:25:47;5.09;;;5.09;;
2710;SDS011;20721;47.402;8.550;2023-12-28T06:27:47;5.36;;;5.36;;
2710;SDS011;20721;47.402;8.550;2023-12-28T06:29:47;4.91;;;4.91;;
2710;SDS011;20721;47.402;8.550;2023-12-28T06:31:48;4.94;;;4.94;;
2710;SDS011;20721;47.402;8.550;2023-12-28T06:33:48;5.29;;;5.29;;
2710;SDS011;20721;47.402;8.550;2023-12-28T06:36:47;6.02;;;6.02;;
2710;SDS011;20721;47.402;8.550;2023-12-28T06:38:47;5.24;;;5.24;;
2710;SDS011;20721;47.402;8.550;2023-12-28T06:40:47;6.47;;;6.47;;
2710;SDS011;20721;47.402;8.550;2023-12-28T06:42:47;5.65;;;5.61;;
2710;SDS011;20721;47.402;8.550;2023-12-28T06:44:47;6.45;;;6.45;;
2710;SDS011;20721;47.402;8.550;2023-12-28T06:46:47;5.16;;;5.16;;
2710;SDS011;20721;47.402;8.550;2023-12-28T06:48:50;5.38;;;5.38;;
2710;SDS011;20721;47.402;8.550;2023-12-28T06:50:47;5.29;;;5.29;;
2710;SDS011;20721;47.402;8.550;2023-12-28T06:52:47;5.41;;;5.41;;
2710;SDS011;20721;47.402;8.550;2023-12-28T06:54:50;5.68;;;5.68;;
2710;SDS011;20721;47.402;8.550;2023-12-28T06:56:47;5.50;;;5.50;;
2710;SDS011;20721;47.402;8.550;2023-12-28T06:58:47;5.19;;;5.19;;
2710;SDS011;20721;47.402;8.550;2023-12-28T07:00:47;4.88;;;4.88;;
2710;SDS011;20721;47.402;8.550;2023-12-28T07:02:48;4.78;;;4.78;;
2710;SDS011;20721;47.402;8.550;2023-12-28T07:05:47;4.32;;;4.32;;
2710;SDS011;20721;47.402;8.550;2023-12-28T07:07:47;4.64;;;4.64;;
2710;SDS011;20721;47.402;8.550;2023-12-28T07:09:47;4.92;;;4.92;;
2710;SDS011;20721;47.402;8.550;2023-12-28T07:11:47;4.64;;;4.64;;
2710;SDS011;20721;47.402;8.550;2023-12-28T07:13:47;4.30;;;4.30;;
2710;SDS011;20721;47.402;8.550;2023-12-28T07:15:47;4.85;;;4.85;;
2710;SDS011;20721;47.402;8.550;2023-12-28T07:18:47;5.66;;;5.66;;
2710;SDS011;20721;47.402;8.550;2023-12-28T07:20:47;4.96;;;4.96;;
2710;SDS011;20721;47.402;8.550;2023-12-28T07:23:47;5.45;;;5.45;;
2710;SDS011;20721;47.402;8.550;2023-12-28T07:25:47;4.97;;;4.97;;
2710;SDS011;20721;47.402;8.550;2023-12-28T07:27:47;4.88;;;4.88;;
2710;SDS011;20721;47.402;8.550;2023-12-28T07:29:47;5.51;;;5.51;;
2710;SDS011;20721;47.402;8.550;2023-12-28T07:31:47;5.26;;;5.26;;
2710;SDS011;20721;47.402;8.550;2023-12-28T07:33:47;5.96;;;5.96;;
2710;SDS011;20721;47.402;8.550;2023-12-28T07:35:47;5.43;;;5.43;;
2710;SDS011;20721;47.402;8.550;2023-12-28T07:37:47;5.36;;;5.36;;
2710;SDS011;20721;47.402;8.550;2023-12-28T07:40:47;4.27;;;4.27;;
2710;SDS011;20721;47.402;8.550;2023-12-28T07:42:48;5.20;;;5.20;;
2710;SDS011;20721;47.402;8.550;2023-12-28T07:44:47;4.95;;;4.89;;
2710;SDS011;20721;47.402;8.550;2023-12-28T07:46:47;4.82;;;4.82;;
2710;SDS011;20721;47.402;8.550;2023-12-28T07:48:47;5.74;;;5.74;;
2710;SDS011;20721;47.402;8.550;2023-12-28T07:50:47;6.02;;;6.02;;
2710;SDS011;20721;47.402;8.550;2023-12-28T07:52:48;5.24;;;5.24;;
2710;SDS011;20721;47.402;8.550;2023-12-28T07:54:47;5.42;;;5.42;;
2710;SDS011;20721;47.402;8.550;2023-12-28T07:56:47;5.82;;;5.82;;
2710;SDS011;20721;47.402;8.550;2023-12-28T07:58:49;5.19;;;5.19;;
2710;SDS011;20721;47.402;8.550;2023-12-28T08:00:48;5.15;;;5.15;;
2710;SDS011;20721;47.402;8.550;2023-12-28T08:02:47;5.10;;;5.10;;
2710;SDS011;20721;47.402;8.550;2023-12-28T08:04:48;5.44;;;5.44;;
2710;SDS011;20721;47.402;8.550;2023-12-28T08:06:47;5.58;;;5.58;;
2710;SDS011;20721;47.402;8.550;2023-12-28T08:08:47;5.77;;;5.77;;
2710;SDS011;20721;47.402;8.550;2023-12-28T08:10:47;5.36;;;5.36;;
2710;SDS011;20721;47.402;8.550;2023-12-28T08:12:47;5.35;;;5.35;;
2710;SDS011;20721;47.402;8.550;2023-12-28T08:14:47;6.25;;;6.25;;
2710;SDS011;20721;47.402;8.550;2023-12-28T08:16:47;5.51;;;5.51;;
2710;SDS011;20721;47.402;8.550;2023-12-28T08:18:47;5.89;;;5.89;;
2710;SDS011;20721;47.402;8.550;2023-12-28T08:20:47;5.74;;;5.74;;
2710;SDS011;20721;47.402;8.550;2023-12-28T08:22:47;5.67;;;5.67;;
2710;SDS011;20721;47.402;8.550;2023-12-28T08:24:47;5.73;;;5.73;;
2710;SDS011;20721;47.402;8.550;2023-12-28T08:26:47;5.82;;;5.82;;
2710;SDS011;20721;47.402;8.550;2023-12-28T08:28:47;5.71;;;5.71;;
2710;SDS011;20721;47.402;8.550;2023-12-28T08:30:47;5.92;;;5.92;;
2710;SDS011;20721;47.402;8.550;2023-12-28T08:32:47;6.21;;;6.21;;
2710;SDS011;20721;47.402;8.550;2023-12-28T08:34:48;6.13;;;6.13;;
2710;SDS011;20721;47.402;8.550;2023-12-28T08:36:47;6.26;;;6.26;;
2710;SDS011;20721;47.402;8.550;2023-12-28T08:38:48;6.48;;;6.48;;
2710;SDS011;20721;47.402;8.550;2023-12-28T08:40:47;6.35;;;6.35;;
2710;SDS011;20721;47.402;8.550;2023-12-28T08:42:47;6.55;;;6.55;;
2710;SDS011;20721;47.402;8.550;2023-12-28T08:44:47;5.59;;;5.59;;
2710;SDS011;20721;47.402;8.550;2023-12-28T08:46:47;6.56;;;6.56;;
2710;SDS011;20721;47.402;8.550;2023-12-28T08:48:47;6.72;;;6.72;;
2710;SDS011;20721;47.402;8.550;2023-12-28T08:50:48;6.21;;;6.21;;
2710;SDS011;20721;47.402;8.550;2023-12-28T08:52:47;6.72;;;6.72;;
2710;SDS011;20721;47.402;8.550;2023-12-28T08:54:47;6.95;;;6.95;;
2710;SDS011;20721;47.402;8.550;2023-12-28T08:56:47;6.03;;;6.03;;
2710;SDS011;20721;47.402;8.550;2023-12-28T08:58:48;6.52;;;6.52;;
2710;SDS011;20721;47.402;8.550;2023-12-28T09:00:47;6.39;;;6.39;;
2710;SDS011;20721;47.402;8.550;2023-12-28T09:02:47;6.63;;;6.63;;
2710;SDS011;20721;47.402;8.550;2023-12-28T09:05:47;6.02;;;6.02;;
2710;SDS011;20721;47.402;8.550;2023-12-28T09:08:51;6.12;;;6.12;;
2710;SDS011;20721;47.402;8.550;2023-12-28T09:10:48;6.96;;;6.96;;
2710;SDS011;20721;47.402;8.550;2023-12-28T09:13:48;6.32;;;6.32;;
2710;SDS011;20721;47.402;8.550;2023-12-28T09:15:47;5.96;;;5.96;;
2710;SDS011;20721;47.402;8.550;2023-12-28T09:17:48;6.62;;;6.62;;
2710;SDS011;20721;47.402;8.550;2023-12-28T09:19:48;6.57;;;6.57;;
2710;SDS011;20721;47.402;8.550;2023-12-28T09:21:48;5.71;;;5.71;;
2710;SDS011;20721;47.402;8.550;2023-12-28T09:23:48;6.26;;;6.26;;
2710;SDS011;20721;47.402;8.550;2023-12-28T09:27:47;6.83;;;6.83;;
2710;SDS011;20721;47.402;8.550;2023-12-28T09:30:48;6.24;;;6.24;;
2710;SDS011;20721;47.402;8.550;2023-12-28T09:32:47;5.89;;;5.89;;
2710;SDS011;20721;47.402;8.550;2023-12-28T09:34:47;5.75;;;5.75;;
2710;SDS011;20721;47.402;8.550;2023-12-28T09:36:47;6.03;;;6.03;;
2710;SDS011;20721;47.402;8.550;2023-12-28T09:38:47;6.74;;;6.74;;
2710;SDS011;20721;47.402;8.550;2023-12-28T09:40:50;7.02;;;7.02;;
2710;SDS011;20721;47.402;8.550;2023-12-28T09:43:53;6.53;;;6.53;;
2710;SDS011;20721;47.402;8.550;2023-12-28T09:45:48;6.02;;;6.02;;
2710;SDS011;20721;47.402;8.550;2023-12-28T09:47:48;6.00;;;6.00;;
2710;SDS011;20721;47.402;8.550;2023-12-28T09:49:58;6.77;;;6.77;;
2710;SDS011;20721;47.402;8.550;2023-12-28T09:51:48;6.62;;;6.62;;
2710;SDS011;20721;47.402;8.550;2023-12-28T09:53:47;6.64;;;6.64;;
2710;SDS011;20721;47.402;8.550;2023-12-28T09:55:48;7.23;;;7.23;;
2710;SDS011;20721;47.402;8.550;2023-12-28T09:57:48;7.05;;;7.05;;
2710;SDS011;20721;47.402;8.550;2023-12-28T09:59:49;7.55;;;7.55;;
2710;SDS011;20721;47.402;8.550;2023-12-28T10:01:48;7.98;;;7.98;;
2710;SDS011;20721;47.402;8.550;2023-12-28T10:03:48;7.30;;;7.30;;
2710;SDS011;20721;47.402;8.550;2023-12-28T10:05:48;8.61;;;8.61;;
2710;SDS011;20721;47.402;8.550;2023-12-28T10:07:55;8.25;;;8.25;;
2710;SDS011;20721;47.402;8.550;2023-12-28T10:09:48;8.08;;;8.08;;
2710;SDS011;20721;47.402;8.550;2023-12-28T10:11:47;7.80;;;7.80;;
2710;SDS011;20721;47.402;8.550;2023-12-28T10:13:48;8.01;;;8.01;;
2710;SDS011;20721;47.402;8.550;2023-12-28T10:15:48;7.77;;;7.77;;
2710;SDS011;20721;47.402;8.550;2023-12-28T10:17:48;7.51;;;7.51;;
2710;SDS011;20721;47.402;8.550;2023-12-28T10:19:48;8.33;;;8.33;;
2710;SDS011;20721;47.402;8.550;2023-12-28T10:21:49;7.53;;;7.53;;
2710;SDS011;20721;47.402;8.550;2023-12-28T10:23:48;7.87;;;7.87;;
2710;SDS011;20721;47.402;8.550;2023-12-28T10:25:48;7.88;;;7.88;;
2710;SDS011;20721;47.402;8.550;2023-12-28T10:27:50;7.93;;;7.93;;
2710;SDS011;20721;47.402;8.550;2023-12-28T10:29:48;8.14;;;8.14;;
2710;SDS011;20721;47.402;8.550;2023-12-28T10:31:51;7.71;;;7.71;;
2710;SDS011;20721;47.402;8.550;2023-12-28T10:33:48;8.21;;;8.21;;
2710;SDS011;20721;47.402;8.550;2023-12-28T10:35:49;7.32;;;7.32;;
2710;SDS011;20721;47.402;8.550;2023-12-28T10:37:51;6.34;;;6.34;;
2710;SDS011;20721;47.402;8.550;2023-12-28T10:39:53;5.92;;;5.92;;
2710;SDS011;20721;47.402;8.550;2023-12-28T10:41:51;6.25;;;6.25;;
2710;SDS011;20721;47.402;8.550;2023-12-28T10:44:00;6.66;;;6.66;;
2710;SDS011;20721;47.402;8.550;2023-12-28T10:45:50;6.33;;;6.33;;
2710;SDS011;20721;47.402;8.550;2023-12-28T10:47:54;6.13;;;6.13;;
2710;SDS011;20721;47.402;8.550;2023-12-28T10:49:49;5.37;;;5.37;;
2710;SDS011;20721;47.402;8.550;2023-12-28T10:51:51;5.27;;;5.27;;
2710;SDS011;20721;47.402;8.550;2023-12-28T10:58:58;6.23;;;6.23;;
2710;SDS011;20721;47.402;8.550;2023-12-28T11:00:54;5.62;;;5.62;;
2710;SDS011;20721;47.402;8.550;2023-12-28T11:02:51;6.35;;;6.35;;
2710;SDS011;20721;47.402;8.550;2023-12-28T11:04:51;5.48;;;5.48;;
2710;SDS011;20721;47.402;8.550;2023-12-28T11:06:48;5.31;;;5.31;;
2710;SDS011;20721;47.402;8.550;2023-12-28T11:08:50;6.36;;;6.36;;
2710;SDS011;20721;47.402;8.550;2023-12-28T11:10:50;7.65;;;7.65;;
2710;SDS011;20721;47.402;8.550;2023-12-28T11:12:48;7.69;;;7.69;;
2710;SDS011;20721;47.402;8.550;2023-12-28T11:14:49;7.69;;;7.67;;
2710;SDS011;20721;47.402;8.550;2023-12-28T11:16:48;7.17;;;7.17;;
2710;SDS011;20721;47.402;8.550;2023-12-28T11:18:49;7.38;;;7.38;;
2710;SDS011;20721;47.402;8.550;2023-12-28T11:20:48;7.58;;;7.58;;
2710;SDS011;20721;47.402;8.550;2023-12-28T11:22:48;8.39;;;8.39;;
2710;SDS011;20721;47.402;8.550;2023-12-28T11:24:48;7.26;;;7.26;;
2710;SDS011;20721;47.402;8.550;2023-12-28T11:27:48;7.70;;;7.70;;
2710;SDS011;20721;47.402;8.550;2023-12-28T11:30:48;8.00;;;8.00;;
2710;SDS011;20721;47.402;8.550;2023-12-28T11:32:48;7.24;;;7.24;;
2710;SDS011;20721;47.402;8.550;2023-12-28T11:34:56;7.48;;;7.48;;
2710;SDS011;20721;47.402;8.550;2023-12-28T11:36:54;7.26;;;7.26;;
2710;SDS011;20721;47.402;8.550;2023-12-28T11:38:51;7.60;;;7.60;;
2710;SDS011;20721;47.402;8.550;2023-12-28T11:40:50;7.19;;;7.19;;
2710;SDS011;20721;47.402;8.550;2023-12-28T11:42:57;6.97;;;6.97;;
2710;SDS011;20721;47.402;8.550;2023-12-28T11:44:52;7.89;;;7.89;;
2710;SDS011;20721;47.402;8.550;2023-12-28T11:48:03;7.25;;;7.25;;
2710;SDS011;20721;47.402;8.550;2023-12-28T11:49:50;7.57;;;7.57;;
2710;SDS011;20721;47.402;8.550;2023-12-28T11:51:53;6.81;;;6.81;;
2710;SDS011;20721;47.402;8.550;2023-12-28T11:53:48;7.63;;;7.63;;
2710;SDS011;20721;47.402;8.550;2023-12-28T11:55:48;8.11;;;8.11;;
2710;SDS011;20721;47.402;8.550;2023-12-28T11:57:48;8.63;;;8.63;;
2710;SDS011;20721;47.402;8.550;2023-12-28T11:59:51;8.19;;;8.19;;
2710;SDS011;20721;47.402;8.550;2023-12-28T12:01:50;8.34;;;8.34;;
2710;SDS011;20721;47.402;8.550;2023-12-28T12:03:48;7.63;;;7.63;;
2710;SDS011;20721;47.402;8.550;2023-12-28T12:05:48;7.98;;;7.98;;
2710;SDS011;20721;47.402;8.550;2023-12-28T12:07:49;8.01;;;8.01;;
2710;SDS011;20721;47.402;8.550;2023-12-28T12:09:48;8.56;;;8.56;;
2710;SDS011;20721;47.402;8.550;2023-12-28T12:11:48;8.76;;;8.76;;
2710;SDS011;20721;47.402;8.550;2023-12-28T12:13:50;8.14;;;8.14;;
2710;SDS011;20721;47.402;8.550;2023-12-28T12:15:50;8.03;;;8.03;;
2710;SDS011;20721;47.402;8.550;2023-12-28T12:17:48;8.80;;;8.80;;
2710;SDS011;20721;47.402;8.550;2023-12-28T12:19:48;8.95;;;8.95;;
2710;SDS011;20721;47.402;8.550;2023-12-28T12:21:48;8.17;;;8.17;;
2710;SDS011;20721;47.402;8.550;2023-12-28T12:23:48;8.21;;;8.21;;
2710;SDS011;20721;47.402;8.550;2023-12-28T12:25:48;8.70;;;8.70;;
2710;SDS011;20721;47.402;8.550;2023-12-28T12:27:48;8.38;;;8.38;;
2710;SDS011;20721;47.402;8.550;2023-12-28T12:29:48;8.30;;;8.30;;
2710;SDS011;20721;47.402;8.550;2023-12-28T12:31:50;8.28;;;8.28;;
2710;SDS011;20721;47.402;8.550;2023-12-28T12:33:49;8.99;;;8.99;;
2710;SDS011;20721;47.402;8.550;2023-12-28T12:35:49;7.88;;;7.88;;
2710;SDS011;20721;47.402;8.550;2023-12-28T12:37:48;7.78;;;7.78;;
2710;SDS011;20721;47.402;8.550;2023-12-28T12:40:50;7.76;;;7.76;;
2710;SDS011;20721;47.402;8.550;2023-12-28T12:43:49;8.07;;;8.07;;
2710;SDS011;20721;47.402;8.550;2023-12-28T12:45:49;7.53;;;7.53;;
2710;SDS011;20721;47.402;8.550;2023-12-28T12:47:50;7.48;;;7.48;;
2710;SDS011;20721;47.402;8.550;2023-12-28T12:50:48;7.87;;;7.87;;
2710;SDS011;20721;47.402;8.550;2023-12-28T12:52:48;6.74;;;6.74;;
2710;SDS011;20721;47.402;8.550;2023-12-28T12:55:03;6.87;;;6.87;;
2710;SDS011;20721;47.402;8.550;2023-12-28T12:56:52;5.83;;;5.83;;